FFA weather

First Flight Airport
Kill Devil Hills, North Carolina, United States

Public forecast

Using degrees Fahrenheit for public forecast. Weather courtesy of forecast.io.

Current aviation weather report (METAR) for First Flight Airport

Retrieved 2020/01/28 00:35 UTC (0 seconds ago):

KFFA 280035Z AUTO 00000KT 10SM -RA OVC070 10/04 A2978 RMK AO2 T01030040

Closest aviation forecast (TAF) to First Flight Airport

Closest forecast is Elizabeth City Regional Airport & Coast Guard Air Station, 28.4 nm (52.6 km) WNW. Retrieved 2020-01-28 00:24 UTC (0 seconds ago):

TAF TAF KECG 272320Z 2800/2824 26005KT P6SM VCSH SCT040 OVC080 TEMPO 2800/2804 BKN040 FM280500 31007KT P6SM BKN080 FM280900 34009KT P6SM SCT120